createdAt,value
2023-01-29T00:00:30.173Z,0
2023-01-29T00:05:48.708Z,0
2023-01-29T00:11:08.034Z,0
2023-01-29T00:16:27.751Z,0
2023-01-29T00:21:47.128Z,0
2023-01-29T00:27:06.534Z,0
2023-01-29T00:32:25.633Z,0
2023-01-29T00:37:44.754Z,0
2023-01-29T00:43:03.863Z,0
2023-01-29T00:48:22.800Z,0
2023-01-29T00:53:41.844Z,0
2023-01-29T00:59:01.374Z,0
2023-01-29T01:04:21.611Z,0
2023-01-29T01:09:41.154Z,0
2023-01-29T01:15:00.001Z,0
2023-01-29T01:21:34.207Z,0
2023-01-29T01:25:40.106Z,0
2023-01-29T01:30:59.068Z,0
2023-01-29T01:36:18.447Z,0
2023-01-29T01:41:38.228Z,0
2023-01-29T01:46:57.049Z,0
2023-01-29T01:52:16.439Z,0
2023-01-29T01:57:35.586Z,0
2023-01-29T02:02:54.985Z,0
2023-01-29T02:08:13.902Z,0
2023-01-29T02:13:32.855Z,0
2023-01-29T02:18:51.894Z,0
2023-01-29T02:24:11.682Z,0
2023-01-29T02:29:31.188Z,0
2023-01-29T02:34:50.667Z,0
2023-01-29T02:40:10.288Z,0
2023-01-29T02:45:29.271Z,0
2023-01-29T02:50:48.189Z,0
2023-01-29T02:56:07.324Z,0
2023-01-29T03:01:26.724Z,0
2023-01-29T03:06:46.125Z,0
2023-01-29T03:12:03.841Z,0
2023-01-29T03:17:22.831Z,0
2023-01-29T03:22:42.290Z,0
2023-01-29T03:28:01.634Z,0
2023-01-29T03:33:20.827Z,0
2023-01-29T03:38:39.707Z,0
2023-01-29T03:43:59.282Z,0
2023-01-29T03:49:18.427Z,0
2023-01-29T03:54:37.784Z,0
2023-01-29T03:59:56.695Z,0
2023-01-29T04:06:30.885Z,0
2023-01-29T04:10:36.768Z,0
2023-01-29T04:15:56.707Z,0
2023-01-29T04:21:16.148Z,0
2023-01-29T04:26:35.800Z,0
2023-01-29T04:31:55.306Z,0
2023-01-29T04:37:14.360Z,0
2023-01-29T04:42:33.536Z,0
2023-01-29T04:47:52.663Z,0
2023-01-29T04:53:11.740Z,0
2023-01-29T04:58:30.719Z,0
2023-01-29T05:03:49.693Z,0
2023-01-29T05:09:08.450Z,0
2023-01-29T05:14:27.307Z,0
2023-01-29T05:19:46.799Z,0
2023-01-29T05:25:06.215Z,0
2023-01-29T05:30:25.880Z,0
2023-01-29T05:35:45.045Z,0
2023-01-29T05:41:03.881Z,0
2023-01-29T05:46:23.190Z,0
2023-01-29T05:51:41.496Z,0
2023-01-29T05:57:00.550Z,0
2023-01-29T06:02:19.991Z,0
2023-01-29T06:07:39.534Z,0
2023-01-29T06:12:58.740Z,0
2023-01-29T06:18:18.254Z,0
2023-01-29T06:24:52.434Z,0
2023-01-29T06:28:58.186Z,0
2023-01-29T06:34:17.775Z,0
2023-01-29T06:39:37.248Z,0
2023-01-29T06:44:57.027Z,0
2023-01-29T06:50:16.578Z,7
2023-01-29T06:55:35.758Z,11
2023-01-29T07:00:55.032Z,14
2023-01-29T07:06:14.241Z,15.24
2023-01-29T07:11:33.764Z,16.25
2023-01-29T07:16:53.367Z,18.16
2023-01-29T07:22:12.325Z,20.18
2023-01-29T07:27:31.682Z,20.19
2023-01-29T07:32:51.120Z,22.21
2023-01-29T07:38:10.817Z,22.89
2023-01-29T07:43:30.531Z,25.81
2023-01-29T07:48:49.873Z,27.17
2023-01-29T07:54:09.476Z,30.64
2023-01-29T07:59:29.233Z,32.24
2023-01-29T08:04:48.229Z,32.71
2023-01-29T08:10:07.982Z,39.04
2023-01-29T08:15:26.262Z,41.72
2023-01-29T08:20:45.090Z,48.57
2023-01-29T08:26:04.063Z,53.3
2023-01-29T08:31:23.799Z,52.16
2023-01-29T08:36:43.368Z,57.97
2023-01-29T08:42:02.275Z,65.56
2023-01-29T08:52:41.577Z,72.93
2023-01-29T09:03:20.478Z,78.78
2023-01-29T09:08:40.199Z,86.08
2023-01-29T09:19:18.614Z,107.03
2023-01-29T09:35:17.069Z,203.08
2023-01-29T09:41:02.591Z,214.09
2023-01-29T09:51:41.146Z,221.26
2023-01-29T10:02:19.759Z,186.11
2023-01-29T10:07:39.283Z,177.26
2023-01-29T10:18:17.685Z,167.22
2023-01-29T10:23:37.421Z,154.02
2023-01-29T10:34:16.294Z,157.67
2023-01-29T10:50:14.333Z,162.7
2023-01-29T11:00:52.975Z,141.79
2023-01-29T11:06:12.464Z,147.13
2023-01-29T11:16:50.347Z,170.46
2023-01-29T11:32:49.110Z,150.95
2023-01-29T11:43:27.376Z,213.11
2023-01-29T11:48:46.488Z,177
2023-01-29T11:59:25.402Z,290.55
2023-01-29T12:26:02.590Z,192.52
2023-01-29T12:31:21.433Z,150.98
2023-01-29T12:57:59.427Z,183.37
2023-01-29T13:13:57.025Z,181.31
2023-01-29T13:19:16.662Z,148.53
2023-01-29T13:24:35.830Z,127.61
2023-01-29T13:40:32.881Z,129.37
2023-01-29T13:51:11.856Z,149.99
2023-01-29T13:56:31.545Z,138.49
2023-01-29T14:23:09.471Z,107.17
2023-01-29T14:33:47.329Z,95.81
2023-01-29T14:40:45.944Z,77.39
2023-01-29T14:49:47.431Z,74.98
2023-01-29T14:55:06.346Z,71.67
2023-01-29T15:05:45.290Z,55.95
2023-01-29T15:11:04.979Z,57.76
2023-01-29T15:21:44.166Z,48.99
2023-01-29T15:32:22.921Z,26.83
2023-01-29T15:42:59.940Z,646.94
2023-01-29T15:58:56.678Z,28.43
2023-01-29T16:09:35.159Z,22.37
2023-01-29T16:14:54.345Z,19.91
2023-01-29T16:20:13.902Z,17.45
2023-01-29T16:25:33.013Z,10
2023-01-29T16:41:29.988Z,0
2023-01-29T16:57:29.689Z,0
2023-01-29T17:08:08.130Z,0
2023-01-29T17:24:05.927Z,0
2023-01-29T17:34:45.523Z,0
2023-01-29T17:40:05.528Z,0
2023-01-29T17:45:24.538Z,0
2023-01-29T17:50:43.912Z,0
2023-01-29T18:01:22.683Z,0
2023-01-29T18:06:41.846Z,0
2023-01-29T18:12:00.819Z,0
2023-01-29T18:22:40.013Z,0
2023-01-29T18:27:59.351Z,0
2023-01-29T18:33:19.098Z,0
2023-01-29T18:49:16.385Z,0
2023-01-29T18:59:54.270Z,0
2023-01-29T19:05:13.499Z,0
2023-01-29T19:10:32.444Z,0
2023-01-29T19:15:51.405Z,0
2023-01-29T19:31:49.462Z,0
2023-01-29T19:47:48.403Z,0
2023-01-29T19:53:07.659Z,0
2023-01-29T19:58:27.565Z,0
2023-01-29T20:03:47.046Z,0
2023-01-29T20:14:25.851Z,0
2023-01-29T20:19:45.220Z,0
2023-01-29T20:25:04.129Z,0
2023-01-29T20:30:23.144Z,0
2023-01-29T20:41:01.917Z,0
2023-01-29T20:56:59.663Z,0
2023-01-29T21:12:57.575Z,0
2023-01-29T21:23:36.635Z,0
2023-01-29T21:28:56.243Z,0
2023-01-29T21:39:35.601Z,0
2023-01-29T21:50:14.020Z,0
2023-01-29T21:55:33.823Z,0
2023-01-29T22:06:12.695Z,0
2023-01-29T22:11:32.303Z,0
2023-01-29T22:16:51.196Z,0
2023-01-29T22:22:10.861Z,0
2023-01-29T22:32:48.049Z,0
2023-01-29T22:43:26.704Z,0
2023-01-29T22:48:45.757Z,0
2023-01-29T22:54:04.753Z,0
2023-01-29T22:59:24.165Z,0
2023-01-29T23:04:43.658Z,0
2023-01-29T23:15:23.255Z,0
2023-01-29T23:26:01.058Z,0
2023-01-29T23:31:20.839Z,0
2023-01-29T23:36:40.490Z,0
2023-01-29T23:41:59.402Z,0
2023-01-29T23:47:19.195Z,0
